Time;durP1;ratioP1;P1;durP2;ratioP2;P2;SDS_P1;SDS_P2;PMS_P1;PMS_P2;Temp;Humidity;BMP_temperature;BMP_pressure;BME280_temperature;BME280_humidity;BME280_pressure;Samples;Min_cycle;Max_cycle;Signal;HPM_P1;HPM_P2
2023/01/13 00:01:50;;;;;;;0.63;0.30;;;;;;;9.98;100.00;99451.59;5192943;28;20026;-72
2023/01/13 00:04:20;;;;;;;0.98;0.30;;;;;;;9.88;100.00;99447.75;5184273;28;20063;-73
2023/01/13 00:06:51;;;;;;;0.57;0.40;;;;;;;9.90;100.00;99443.28;5181143;28;20065;-70
2023/01/13 00:09:21;;;;;;;1.35;0.20;;;;;;;9.88;100.00;99443.38;5189383;28;20361;-72
2023/01/13 00:11:51;;;;;;;0.57;0.22;;;;;;;9.82;100.00;99440.25;5192346;28;20033;-73
2023/01/13 00:14:22;;;;;;;1.83;0.30;;;;;;;9.78;100.00;99442.16;5188680;28;20041;-72
2023/01/13 00:16:52;;;;;;;1.60;0.20;;;;;;;9.90;100.00;99449.38;5180907;28;20170;-72
2023/01/13 00:19:23;;;;;;;0.40;0.15;;;;;;;9.86;100.00;99444.38;5183783;28;20117;-72
2023/01/13 00:21:53;;;;;;;1.05;0.40;;;;;;;9.79;100.00;99450.84;5189349;28;20029;-72
2023/01/13 00:24:23;;;;;;;0.70;0.28;;;;;;;9.75;100.00;99449.28;5187473;28;20041;-74
2023/01/13 00:26:53;;;;;;;1.63;0.30;;;;;;;9.80;100.00;99447.31;5183276;28;20033;-72
2023/01/13 00:29:24;;;;;;;1.15;0.32;;;;;;;9.80;100.00;99453.34;5187345;28;20037;-72
2023/01/13 00:31:54;;;;;;;0.30;0.20;;;;;;;9.83;100.00;99460.19;5180860;28;20096;-72
2023/01/13 00:34:24;;;;;;;0.93;0.30;;;;;;;9.80;100.00;99455.13;5190643;28;20514;-72
2023/01/13 00:36:56;;;;;;;1.63;0.30;;;;;;;9.85;100.00;99455.72;5182962;28;20030;-72
2023/01/13 00:39:27;;;;;;;0.40;0.20;;;;;;;9.86;100.00;99450.41;5188232;28;20032;-73
2023/01/13 00:44:46;;;;;;;0.88;0.20;;;;;;;9.90;100.00;99438.06;5188991;28;20052;-72
2023/01/13 00:47:17;;;;;;;0.45;0.38;;;;;;;9.79;100.00;99435.19;5168450;28;20025;-72
2023/01/13 00:49:48;;;;;;;0.40;0.30;;;;;;;9.81;100.00;99443.78;5189650;28;20398;-72
2023/01/13 00:52:19;;;;;;;1.27;0.30;;;;;;;9.89;100.00;99441.59;5181338;28;20025;-72
2023/01/13 00:54:49;;;;;;;0.35;0.20;;;;;;;9.83;100.00;99434.09;5182618;28;20495;-72
2023/01/13 00:57:19;;;;;;;1.05;0.30;;;;;;;9.85;100.00;99430.47;5165909;28;20043;-72
2023/01/13 00:59:50;;;;;;;1.02;0.30;;;;;;;9.86;100.00;99426.09;5184030;28;20041;-71
2023/01/13 01:02:20;;;;;;;0.77;0.17;;;;;;;9.81;100.00;99423.72;5184765;28;20046;-72
2023/01/13 01:04:50;;;;;;;1.25;0.22;;;;;;;9.74;100.00;99422.38;5169438;28;20025;-72
2023/01/13 01:07:21;;;;;;;0.60;0.20;;;;;;;9.71;100.00;99424.28;5182684;28;20529;-72
2023/01/13 01:09:51;;;;;;;1.95;0.22;;;;;;;9.74;100.00;99418.91;5170309;28;20124;-72
2023/01/13 01:12:21;;;;;;;0.75;0.30;;;;;;;9.78;100.00;99418.66;5168693;28;20183;-72
2023/01/13 01:14:51;;;;;;;0.45;0.30;;;;;;;9.79;100.00;99420.34;5183673;28;20095;-72
2023/01/13 01:17:22;;;;;;;0.47;0.22;;;;;;;9.86;100.00;99410.44;5186672;28;20530;-72
2023/01/13 01:19:52;;;;;;;0.10;0.10;;;;;;;9.88;100.00;99408.59;5182393;28;20040;-72
2023/01/13 01:22:22;;;;;;;0.63;0.30;;;;;;;9.87;100.00;99409.53;5179842;28;20037;-72
2023/01/13 01:24:53;;;;;;;0.20;0.20;;;;;;;9.84;100.00;99412.31;5180231;28;20668;-72
2023/01/13 01:27:23;;;;;;;0.80;0.28;;;;;;;9.81;100.00;99418.50;5185381;28;20030;-72
2023/01/13 01:29:53;;;;;;;1.67;0.28;;;;;;;9.85;100.00;99425.25;5181142;28;20048;-72
2023/01/13 01:32:23;;;;;;;1.60;0.20;;;;;;;9.85;100.00;99406.97;5185612;28;20104;-72
2023/01/13 01:34:54;;;;;;;0.20;0.20;;;;;;;9.89;100.00;99415.50;5184490;28;20025;-72
2023/01/13 01:37:24;;;;;;;0.25;0.20;;;;;;;9.86;100.00;99407.84;5184612;28;20018;-72
2023/01/13 01:39:54;;;;;;;0.17;0.10;;;;;;;9.88;100.00;99411.22;5182586;28;20407;-72
2023/01/13 01:45:20;;;;;;;0.25;0.20;;;;;;;9.77;100.00;99408.31;5192029;28;20037;-72
2023/01/13 01:47:59;;;;;;;0.80;0.30;;;;;;;9.82;100.00;99408.94;5176685;28;20067;-72
2023/01/13 01:50:30;;;;;;;2.28;0.40;;;;;;;9.86;100.00;99408.66;5184710;28;20561;-72
2023/01/13 01:53:13;;;;;;;0.28;0.20;;;;;;;9.85;100.00;99406.97;5190227;28;20038;-72
2023/01/13 01:55:44;;;;;;;1.75;0.30;;;;;;;9.87;100.00;99418.22;5194741;28;20025;-72
2023/01/13 01:58:21;;;;;;;1.02;0.30;;;;;;;9.94;100.00;99413.50;5191723;28;20030;-72
2023/01/13 02:00:51;;;;;;;0.20;0.20;;;;;;;9.83;100.00;99408.00;5175567;28;20132;-72
2023/01/13 02:03:21;;;;;;;0.38;0.20;;;;;;;9.86;100.00;99411.28;5191513;28;20482;-72
2023/01/13 02:05:52;;;;;;;0.25;0.20;;;;;;;9.77;100.00;99410.91;5177052;28;20078;-72
2023/01/13 02:08:22;;;;;;;0.63;0.40;;;;;;;9.82;100.00;99406.31;5188037;28;20108;-72
2023/01/13 02:10:53;;;;;;;0.63;0.20;;;;;;;9.83;100.00;99394.97;5166104;28;20472;-72
2023/01/13 02:13:23;;;;;;;2.55;0.20;;;;;;;9.80;100.00;99387.28;5191236;28;20032;-72
2023/01/13 02:16:15;;;;;;;0.40;0.30;;;;;;;9.80;100.00;99400.34;5194249;28;20017;-72
2023/01/13 02:18:58;;;;;;;0.63;0.40;;;;;;;9.83;100.00;99398.41;5192720;28;20025;-72
2023/01/13 02:21:48;;;;;;;0.90;0.40;;;;;;;9.85;100.00;99395.72;5181800;28;20554;-72
2023/01/13 02:24:52;;;;;;;2.85;0.52;;;;;;;9.95;100.00;99402.13;5186510;28;20034;-72
2023/01/13 02:27:49;;;;;;;1.40;0.60;;;;;;;10.00;100.00;99387.09;5184907;28;20080;-72
2023/01/13 02:33:25;;;;;;;1.95;0.60;;;;;;;10.01;100.00;99400.09;5189497;28;20091;-72
2023/01/13 02:36:17;;;;;;;1.52;0.50;;;;;;;10.01;100.00;99410.53;5193436;28;20032;-72
2023/01/13 02:38:56;;;;;;;2.47;0.50;;;;;;;10.02;100.00;99400.94;5248806;22;20102;-78
2023/01/13 02:44:39;;;;;;;1.20;0.40;;;;;;;9.89;100.00;99405.06;5228529;28;20556;-77
2023/01/13 02:47:28;;;;;;;1.45;0.60;;;;;;;9.88;100.00;99403.38;5233022;28;20514;-73
2023/01/13 02:50:02;;;;;;;2.65;0.60;;;;;;;9.85;100.00;99406.16;5225154;28;20407;-77
2023/01/13 02:52:41;;;;;;;2.15;0.60;;;;;;;9.78;100.00;99402.16;5225594;28;20387;-78
2023/01/13 02:55:16;;;;;;;1.88;0.70;;;;;;;9.79;100.00;99399.47;5216083;28;20414;-76
2023/01/13 02:57:48;;;;;;;1.65;0.60;;;;;;;9.73;100.00;99401.56;5230865;28;20474;-77
2023/01/13 03:00:19;;;;;;;3.63;0.80;;;;;;;9.68;100.00;99401.78;5231520;28;20060;-76
2023/01/13 03:02:50;;;;;;;1.52;0.65;;;;;;;9.72;100.00;99402.47;5230598;28;20456;-77
2023/01/13 03:05:20;;;;;;;2.88;0.68;;;;;;;9.78;100.00;99396.94;5233628;28;20028;-77
2023/01/13 03:08:16;;;;;;;2.35;0.50;;;;;;;9.74;100.00;99379.75;5217094;28;20406;-77
2023/01/13 03:11:17;;;;;;;0.75;0.52;;;;;;;9.73;100.00;99391.97;5231909;28;20272;-77
2023/01/13 03:14:16;;;;;;;2.40;0.70;;;;;;;9.59;100.00;99399.66;5209293;28;20040;-78
2023/01/13 03:17:04;;;;;;;1.67;0.40;;;;;;;9.59;100.00;99396.19;5231377;28;20052;-76
2023/01/13 03:19:40;;;;;;;1.92;0.60;;;;;;;9.63;100.00;99397.75;5226832;28;20037;-78
2023/01/13 03:22:30;;;;;;;2.97;0.68;;;;;;;9.64;100.00;99404.66;5229507;28;20021;-76
2023/01/13 03:25:27;;;;;;;1.40;0.40;;;;;;;9.67;100.00;99399.28;5229956;28;20456;-76
2023/01/13 03:28:16;;;;;;;0.45;0.25;;;;;;;9.61;100.00;99396.94;5210798;28;20087;-77
2023/01/13 03:30:52;;;;;;;1.27;0.40;;;;;;;9.69;100.00;99390.44;5215448;28;20025;-77
2023/01/13 03:33:30;;;;;;;1.42;0.40;;;;;;;9.66;100.00;99402.81;5225965;28;20501;-76
2023/01/13 03:36:09;;;;;;;0.43;0.35;;;;;;;9.67;100.00;99412.31;5227000;28;20493;-77
2023/01/13 03:38:43;;;;;;;2.25;0.90;;;;;;;9.68;100.00;99412.22;5234067;28;20032;-77
2023/01/13 03:41:47;;;;;;;2.15;0.80;;;;;;;9.69;100.00;99416.50;5216439;28;20028;-78
2023/01/13 03:44:26;;;;;;;2.33;0.68;;;;;;;9.76;100.00;99404.88;5201482;28;20078;-78
2023/01/13 03:47:19;;;;;;;1.20;0.50;;;;;;;9.70;100.00;99420.84;5231867;28;20510;-78
2023/01/13 03:49:55;;;;;;;1.10;0.40;;;;;;;9.68;100.00;99419.22;5226733;28;20406;-76
2023/01/13 03:52:33;;;;;;;0.60;0.40;;;;;;;9.61;100.00;99417.81;5229144;28;20338;-77
2023/01/13 03:55:19;;;;;;;2.30;0.55;;;;;;;9.62;100.00;99419.53;5229140;28;20021;-77
2023/01/13 03:57:56;;;;;;;;;;;;;;;9.56;100.00;99415.47;5229542;28;20517;-77
2023/01/13 04:00:32;;;;;;;2.72;0.65;;;;;;;9.55;100.00;99415.53;5230887;28;19919;-77
2023/01/13 04:03:13;;;;;;;1.83;0.40;;;;;;;9.59;100.00;99417.06;5230686;28;20159;-77
2023/01/13 04:05:50;;;;;;;1.17;0.40;;;;;;;9.62;100.00;99422.16;5228698;28;20401;-78
2023/01/13 04:08:25;;;;;;;1.52;0.55;;;;;;;9.60;100.00;99434.38;5227242;28;20028;-78
2023/01/13 04:11:02;;;;;;;1.05;0.40;;;;;;;9.54;100.00;99424.28;5232261;28;20032;-77
2023/01/13 04:13:38;;;;;;;2.97;0.50;;;;;;;9.64;100.00;99407.25;5208691;28;20490;-77
2023/01/13 04:16:10;;;;;;;1.60;0.60;;;;;;;9.56;100.00;99386.78;5202950;28;20532;-78
2023/01/13 04:18:40;;;;;;;3.88;0.50;;;;;;;9.53;100.00;99392.16;5210651;28;20039;-78
2023/01/13 04:21:11;;;;;;;3.63;0.68;;;;;;;9.46;100.00;99414.22;5231238;28;20017;-78
2023/01/13 04:23:41;;;;;;;2.78;0.50;;;;;;;9.49;100.00;99403.63;5205101;28;20077;-76
2023/01/13 04:26:11;;;;;;;4.90;0.70;;;;;;;9.50;100.00;99407.94;5227391;28;20036;-77
2023/01/13 04:28:41;;;;;;;4.70;0.80;;;;;;;9.59;100.00;99427.47;5213117;28;20634;-77
2023/01/13 04:31:12;;;;;;;3.88;0.80;;;;;;;9.56;100.00;99401.56;5230585;28;20036;-76
2023/01/13 04:33:42;;;;;;;3.38;0.80;;;;;;;9.67;100.00;99383.63;5229109;28;20043;-77
2023/01/13 04:36:12;;;;;;;6.15;1.00;;;;;;;9.66;100.00;99402.81;5223180;28;20452;-77
2023/01/13 04:38:43;;;;;;;4.78;1.50;;;;;;;9.76;100.00;99409.22;5225022;28;20024;-77
2023/01/13 04:41:13;;;;;;;6.13;1.30;;;;;;;9.77;100.00;99384.81;5230000;28;20032;-76
2023/01/13 04:43:43;;;;;;;2.97;0.90;;;;;;;9.66;100.00;99377.53;5225820;28;20028;-78
2023/01/13 04:46:14;;;;;;;4.90;1.00;;;;;;;9.66;100.00;99392.38;5226168;28;20025;-77
2023/01/13 04:48:44;;;;;;;6.43;2.55;;;;;;;9.60;100.00;99403.09;5229075;28;20478;-77
2023/01/13 04:51:14;;;;;;;2.47;0.93;;;;;;;9.59;100.00;99412.69;5225425;28;20059;-77
2023/01/13 04:53:45;;;;;;;1.65;0.65;;;;;;;9.54;100.00;99413.84;5225105;28;20024;-77
2023/01/13 04:56:15;;;;;;;5.55;0.98;;;;;;;9.43;100.00;99408.31;5205352;28;20017;-77
2023/01/13 04:58:46;;;;;;;5.22;0.80;;;;;;;9.49;100.00;99408.84;5233104;28;20028;-77
2023/01/13 05:01:16;;;;;;;4.28;0.90;;;;;;;9.41;100.00;99408.41;5229589;28;20049;-77
2023/01/13 05:03:46;;;;;;;3.15;0.90;;;;;;;9.46;100.00;99421.22;5227369;28;20086;-77
2023/01/13 05:06:16;;;;;;;4.28;0.68;;;;;;;9.33;100.00;99425.34;5207658;28;20111;-76
2023/01/13 05:08:47;;;;;;;2.58;0.80;;;;;;;9.46;100.00;99435.09;5225790;28;20036;-76
2023/01/13 05:17:05;;;;;;;4.57;1.50;;;;;;;9.42;100.00;99440.50;5229595;28;20029;-77
2023/01/13 05:19:38;;;;;;;5.18;0.98;;;;;;;9.37;100.00;99434.69;5230859;28;20032;-77
2023/01/13 05:27:51;;;;;;;7.28;1.67;;;;;;;9.32;100.00;99444.50;5225434;28;20086;-77
2023/01/13 05:30:24;;;;;;;5.57;1.30;;;;;;;9.25;100.00;99453.53;5217399;28;20366;-78
2023/01/13 05:32:55;;;;;;;10.40;1.45;;;;;;;9.13;100.00;99449.75;5212462;28;20169;-77
2023/01/13 05:35:25;;;;;;;5.40;1.30;;;;;;;9.11;100.00;99453.38;5223514;28;20095;-77
2023/01/13 05:37:55;;;;;;;10.82;1.77;;;;;;;9.11;100.00;99445.53;5230698;28;20031;-77
2023/01/13 05:43:19;;;;;;;11.00;2.42;;;;;;;9.04;100.00;99445.91;5229194;28;20040;-77
2023/01/13 05:45:57;;;;;;;13.63;3.70;;;;;;;9.13;100.00;99446.31;5224910;28;20032;-76
2023/01/13 05:48:36;;;;;;;8.70;2.05;;;;;;;9.15;100.00;99460.94;5227724;28;20083;-77
2023/01/13 05:51:09;;;;;;;8.30;1.80;;;;;;;9.07;100.00;99449.19;5214862;28;20385;-78
2023/01/13 05:53:39;;;;;;;7.43;1.50;;;;;;;9.04;100.00;99451.94;5227484;28;20516;-77
2023/01/13 05:56:11;;;;;;;6.40;1.52;;;;;;;9.10;100.00;99424.75;5226427;28;20025;-77
2023/01/13 05:58:41;;;;;;;7.72;1.80;;;;;;;9.03;100.00;99446.81;5230993;28;20268;-78
2023/01/13 06:01:11;;;;;;;5.10;1.58;;;;;;;8.92;100.00;99436.88;5231442;28;20033;-78
2023/01/13 06:03:42;;;;;;;9.23;3.55;;;;;;;8.85;100.00;99447.66;5229036;28;20060;-77
2023/01/13 06:06:12;;;;;;;6.38;2.28;;;;;;;8.73;100.00;99446.47;5225333;28;20385;-77
2023/01/13 06:08:42;;;;;;;10.30;2.85;;;;;;;8.66;100.00;99458.09;5223140;28;20085;-76
2023/01/13 06:11:13;;;;;;;10.00;3.63;;;;;;;8.58;100.00;99464.56;5215822;28;20153;-78
2023/01/13 06:13:43;;;;;;;11.32;5.05;;;;;;;8.48;100.00;99451.13;5230981;28;20547;-77
2023/01/13 06:16:13;;;;;;;15.90;6.13;;;;;;;8.41;100.00;99446.25;5229174;28;20394;-76
2023/01/13 06:18:43;;;;;;;11.88;4.90;;;;;;;8.40;100.00;99444.56;5234731;28;20020;-76
2023/01/13 06:21:14;;;;;;;12.77;4.88;;;;;;;8.41;100.00;99457.50;5215138;28;20450;-78
2023/01/13 06:23:44;;;;;;;10.57;2.83;;;;;;;8.42;100.00;99456.59;5228314;28;20041;-77
2023/01/13 06:26:18;;;;;;;14.13;4.10;;;;;;;8.38;100.00;99462.03;5237770;28;20017;-77
2023/01/13 06:28:49;;;;;;;10.23;3.17;;;;;;;8.37;100.00;99460.31;5228410;28;20032;-78
2023/01/13 06:31:19;;;;;;;15.75;3.70;;;;;;;8.28;100.00;99461.56;5213863;28;20186;-77
2023/01/13 06:33:54;;;;;;;16.42;4.95;;;;;;;8.27;100.00;99457.28;5230250;28;20048;-77
2023/01/13 06:36:40;;;;;;;7.60;2.88;;;;;;;8.20;100.00;99452.41;5225764;28;20028;-77
2023/01/13 06:39:14;;;;;;;11.95;2.30;;;;;;;8.27;100.00;99453.81;5233818;28;20125;-77
2023/01/13 06:44:38;;;;;;;6.30;1.70;;;;;;;8.12;100.00;99455.31;5226093;28;20185;-77
2023/01/13 06:47:08;;;;;;;12.63;3.50;;;;;;;8.00;100.00;99463.66;5194363;28;20128;-76
2023/01/13 06:49:38;;;;;;;7.03;2.60;;;;;;;8.02;100.00;99461.00;5232651;28;20029;-76
2023/01/13 06:52:09;;;;;;;7.97;1.73;;;;;;;7.97;100.00;99455.97;5235266;28;20168;-77
2023/01/13 06:54:39;;;;;;;7.93;1.67;;;;;;;8.01;100.00;99456.72;5227856;28;20036;-77
2023/01/13 06:57:09;;;;;;;9.32;2.28;;;;;;;7.97;100.00;99462.91;5235083;28;20447;-74
2023/01/13 06:59:39;;;;;;;8.27;1.83;;;;;;;7.95;100.00;99473.41;5234903;28;20082;-77
2023/01/13 07:02:10;;;;;;;8.27;1.80;;;;;;;7.88;100.00;99466.75;5226908;28;20458;-76
2023/01/13 07:04:40;;;;;;;9.68;2.30;;;;;;;7.91;100.00;99469.22;5222231;28;20037;-76
2023/01/13 07:07:11;;;;;;;10.10;2.38;;;;;;;7.81;100.00;99467.94;5229632;28;20204;-76
2023/01/13 07:09:42;;;;;;;4.82;2.22;;;;;;;7.87;100.00;99469.44;5214858;28;20025;-77
2023/01/13 07:12:12;;;;;;;8.02;1.85;;;;;;;7.93;100.00;99467.44;5228664;28;20417;-77
2023/01/13 07:17:31;;;;;;;9.95;1.65;;;;;;;7.89;100.00;99468.44;5231401;28;20051;-76
2023/01/13 07:20:02;;;;;;;11.25;2.10;;;;;;;7.84;100.00;99457.41;5232390;28;20553;-77
2023/01/13 07:22:32;;;;;;;10.05;1.30;;;;;;;7.90;100.00;99456.31;5227338;28;20040;-77
2023/01/13 07:25:03;;;;;;;7.57;2.00;;;;;;;7.83;100.00;99453.13;5230339;28;20033;-76
2023/01/13 07:27:33;;;;;;;13.25;1.95;;;;;;;7.90;100.00;99453.72;5231190;28;20032;-77
2023/01/13 07:30:05;;;;;;;9.20;1.45;;;;;;;7.99;100.00;99468.91;5229469;28;20053;-77
2023/01/13 07:32:35;;;;;;;12.98;1.85;;;;;;;7.97;100.00;99468.13;5230921;28;20043;-76
2023/01/13 07:35:05;;;;;;;7.82;1.65;;;;;;;7.89;100.00;99460.66;5226069;28;20029;-77
2023/01/13 07:37:38;;;;;;;13.80;2.10;;;;;;;7.98;100.00;99462.88;5231073;28;20116;-77
2023/01/13 07:40:08;;;;;;;9.30;1.55;;;;;;;7.97;100.00;99455.13;5231347;28;20033;-78
2023/01/13 07:45:27;;;;;;;9.93;1.35;;;;;;;7.88;100.00;99434.72;5223369;28;20040;-76
2023/01/13 07:47:58;;;;;;;9.23;1.48;;;;;;;7.78;100.00;99438.63;5232477;28;20025;-76
2023/01/13 07:50:28;;;;;;;8.20;1.45;;;;;;;7.72;100.00;99455.31;5212593;28;20113;-77
2023/01/13 07:52:58;;;;;;;9.90;1.98;;;;;;;7.68;100.00;99438.16;5206850;28;20388;-77
2023/01/13 07:55:29;;;;;;;8.25;1.50;;;;;;;7.68;100.00;99435.56;5192494;28;20033;-77
2023/01/13 07:57:59;;;;;;;10.35;1.42;;;;;;;7.78;100.00;99439.47;5233262;28;20032;-77
2023/01/13 08:00:29;;;;;;;9.40;1.30;;;;;;;7.72;100.00;99450.13;5212705;28;20521;-75
2023/01/13 08:03:00;;;;;;;10.10;1.45;;;;;;;7.97;100.00;99455.97;5210943;28;20040;-77
2023/01/13 08:05:30;;;;;;;8.18;1.42;;;;;;;8.24;100.00;99457.41;5226719;28;20195;-76
2023/01/13 08:08:01;;;;;;;8.70;1.55;;;;;;;8.66;100.00;99450.28;5232355;28;20051;-76
2023/01/13 08:10:31;;;;;;;10.13;1.40;;;;;;;9.26;96.91;99443.03;5209291;28;20028;-76
2023/01/13 08:13:18;;;;;;;9.30;1.30;;;;;;;9.96;90.69;99445.59;5233491;28;20024;-77
2023/01/13 08:15:57;;;;;;;10.48;1.48;;;;;;;10.16;89.96;99453.28;5225816;28;20021;-78
2023/01/13 08:18:28;;;;;;;13.00;1.70;;;;;;;10.26;88.62;99454.47;5231167;28;20032;-78
2023/01/13 08:21:04;;;;;;;8.18;1.55;;;;;;;10.99;84.79;99453.06;5230962;28;20074;-76
2023/01/13 08:23:35;;;;;;;6.97;1.23;;;;;;;11.99;82.90;99452.47;5224951;28;20044;-76
2023/01/13 08:26:09;;;;;;;8.85;1.75;;;;;;;11.56;81.71;99469.00;5211982;28;20021;-77
2023/01/13 08:28:39;;;;;;;9.45;1.70;;;;;;;11.57;80.52;99464.59;5238540;28;20037;-76
2023/01/13 08:31:12;;;;;;;7.38;1.75;;;;;;;11.55;80.57;99472.50;5216153;28;20021;-78
2023/01/13 08:33:43;;;;;;;10.70;1.75;;;;;;;10.95;83.98;99489.91;5233229;28;20059;-77
2023/01/13 08:36:13;;;;;;;7.53;1.75;;;;;;;10.62;84.19;99484.75;5229982;28;20063;-77
2023/01/13 08:38:44;;;;;;;6.00;1.17;;;;;;;9.88;88.28;99497.31;5253829;22;20127;-74
2023/01/13 08:41:53;;;;;;;7.32;1.60;;;;;;;9.77;89.45;99497.00;5225915;28;20087;-74
2023/01/13 08:44:08;;;;;;;9.48;1.33;;;;;;;9.64;89.47;99490.72;5221424;28;20071;-73
2023/01/13 08:46:38;;;;;;;8.48;1.27;;;;;;;9.33;90.40;99498.34;5229283;28;20046;-73
2023/01/13 08:49:08;;;;;;;7.20;1.63;;;;;;;9.45;90.23;99493.38;5217451;28;20024;-75
2023/01/13 08:51:39;;;;;;;9.75;1.33;;;;;;;9.54;89.54;99498.16;5206757;28;20087;-73
2023/01/13 08:54:10;;;;;;;8.82;1.27;;;;;;;9.36;89.37;99496.44;5203946;28;20036;-73
2023/01/13 08:56:41;;;;;;;7.25;1.10;;;;;;;9.46;89.61;99504.66;5201934;28;20021;-76
2023/01/13 08:59:14;;;;;;;8.52;1.15;;;;;;;9.49;90.10;99504.50;5205851;28;20029;-75
2023/01/13 09:01:44;;;;;;;7.57;1.13;;;;;;;9.65;89.40;99500.25;5209284;28;20033;-73
2023/01/13 09:04:18;;;;;;;6.40;1.17;;;;;;;9.90;87.97;99487.66;5218392;28;20031;-73
2023/01/13 09:06:49;;;;;;;8.27;1.67;;;;;;;10.00;88.97;99491.50;5193891;28;20021;-74
2023/01/13 09:09:21;;;;;;;11.48;2.15;;;;;;;10.08;87.22;99482.41;5218851;28;20051;-72
2023/01/13 09:14:40;;;;;;;10.23;1.50;;;;;;;9.92;87.48;99498.84;5218867;28;20406;-74
2023/01/13 09:17:10;;;;;;;6.60;1.38;;;;;;;10.06;87.43;99504.25;5216361;28;20033;-73
2023/01/13 09:19:41;;;;;;;6.10;1.20;;;;;;;10.06;88.20;99493.81;5216421;28;20028;-73
2023/01/13 09:22:15;;;;;;;6.40;1.13;;;;;;;10.23;86.76;99504.25;5212371;28;20017;-74
2023/01/13 09:24:45;;;;;;;9.35;1.35;;;;;;;10.31;86.85;99510.78;5204909;28;20026;-75
2023/01/13 09:27:16;;;;;;;8.90;1.60;;;;;;;10.47;87.06;99513.41;5215499;28;20025;-76
2023/01/13 09:29:46;;;;;;;12.63;1.35;;;;;;;10.42;85.97;99515.44;5212039;28;20471;-73
2023/01/13 09:32:16;;;;;;;5.45;1.20;;;;;;;10.84;86.24;99503.56;5200195;28;20043;-74
2023/01/13 09:34:59;;;;;;;7.95;1.50;;;;;;;10.75;84.31;99509.31;5212286;28;20435;-74
2023/01/13 09:37:33;;;;;;;7.20;1.05;;;;;;;10.81;85.88;99513.34;5210469;28;20087;-73
2023/01/13 09:40:18;;;;;;;9.68;1.50;;;;;;;10.58;86.36;99503.25;5186949;28;20086;-74
2023/01/13 09:45:59;;;;;;;12.82;1.63;;;;;;;10.40;85.75;99518.16;5205529;28;20048;-73
2023/01/13 09:48:50;;;;;;;11.40;1.33;;;;;;;10.56;85.56;99505.13;5219147;28;20029;-74
2023/01/13 09:51:29;;;;;;;10.27;1.42;;;;;;;10.34;85.56;99518.44;5211877;28;20058;-74
2023/01/13 09:54:10;;;;;;;7.15;1.13;;;;;;;10.31;86.08;99521.22;5189416;28;20049;-74
2023/01/13 09:56:41;;;;;;;7.65;1.90;;;;;;;10.42;87.01;99518.03;5202102;28;20025;-74
2023/01/13 09:59:11;;;;;;;13.00;2.60;;;;;;;10.58;84.51;99516.31;5210977;28;20070;-74
2023/01/13 10:01:57;;;;;;;13.00;2.30;;;;;;;10.46;85.65;99514.34;5193441;28;20107;-74
2023/01/13 10:04:27;;;;;;;10.57;1.98;;;;;;;10.39;84.67;99532.13;5195442;28;20024;-73
2023/01/13 10:07:02;;;;;;;8.77;1.98;;;;;;;10.05;84.23;99531.28;5215396;28;20282;-74
2023/01/13 10:09:38;;;;;;;11.15;1.65;;;;;;;10.21;83.85;99524.38;5206286;28;20204;-73
2023/01/13 10:15:14;;;;;;;6.60;1.50;;;;;;;10.30;83.20;99521.28;5213988;28;20036;-73
2023/01/13 10:17:53;;;;;;;9.55;1.55;;;;;;;10.34;82.82;99509.78;5219251;28;20021;-73
2023/01/13 10:20:51;;;;;;;9.23;1.75;;;;;;;10.40;82.59;99517.28;5212152;28;20020;-73
2023/01/13 10:23:34;;;;;;;8.95;1.60;;;;;;;10.48;83.06;99520.38;5215374;28;20021;-76
2023/01/13 10:26:26;;;;;;;8.73;1.90;;;;;;;10.44;81.49;99524.03;5194722;28;20029;-74
2023/01/13 10:28:57;;;;;;;11.35;2.00;;;;;;;10.44;79.57;99514.44;5193263;28;20033;-74
2023/01/13 10:31:27;;;;;;;9.23;1.63;;;;;;;10.54;81.88;99507.78;5216753;28;20029;-74
2023/01/13 10:33:59;;;;;;;9.48;1.77;;;;;;;10.60;80.03;99517.09;5220940;28;20020;-74
2023/01/13 10:36:29;;;;;;;9.52;1.38;;;;;;;10.47;78.46;99508.19;5222068;28;20025;-73
2023/01/13 10:39:15;;;;;;;8.82;1.65;;;;;;;10.27;79.85;99518.84;5215707;28;20040;-75
2023/01/13 10:41:46;;;;;;;10.32;1.92;;;;;;;10.32;79.16;99514.25;5224102;28;20028;-75
2023/01/13 10:44:17;;;;;;;9.35;1.55;;;;;;;10.29;78.73;99520.44;5223297;28;20025;-74
2023/01/13 10:46:53;;;;;;;7.88;1.58;;;;;;;10.26;77.64;99506.69;5210173;28;20110;-73
2023/01/13 10:49:35;;;;;;;6.63;1.30;;;;;;;10.17;79.71;99521.06;5208655;28;20025;-74
2023/01/13 10:52:27;;;;;;;11.40;1.63;;;;;;;10.21;79.23;99521.75;5216382;28;20036;-75
2023/01/13 10:54:58;;;;;;;5.78;1.08;;;;;;;10.21;78.41;99527.00;5196757;28;20119;-72
2023/01/13 10:57:35;;;;;;;9.68;1.73;;;;;;;10.15;79.55;99516.88;5205353;28;20113;-73
2023/01/13 11:00:25;;;;;;;12.65;2.15;;;;;;;10.03;79.50;99525.31;5223177;28;20028;-73
2023/01/13 11:03:14;;;;;;;6.75;1.40;;;;;;;10.05;78.31;99546.94;5210252;28;20032;-73
2023/01/13 11:05:50;;;;;;;7.85;1.55;;;;;;;10.04;78.92;99545.25;5200780;28;20529;-73
2023/01/13 11:08:24;;;;;;;13.02;1.63;;;;;;;9.99;79.43;99531.56;5205475;28;20037;-75
2023/01/13 11:10:58;;;;;;;14.43;1.88;;;;;;;9.99;77.84;99537.63;5223232;28;20028;-76
2023/01/13 11:13:34;;;;;;;8.32;1.45;;;;;;;9.99;76.76;99532.41;5208162;28;20038;-76
2023/01/13 11:16:16;;;;;;;10.48;1.25;;;;;;;9.95;76.83;99540.44;5205439;28;20032;-76
2023/01/13 11:19:01;;;;;;;13.23;1.75;;;;;;;10.01;75.44;99533.19;5216305;28;20487;-75
2023/01/13 11:21:48;;;;;;;10.05;1.63;;;;;;;9.96;76.73;99531.72;5210199;28;20048;-75
2023/01/13 11:24:28;;;;;;;8.88;1.55;;;;;;;9.89;77.08;99540.75;5222293;28;20029;-74
2023/01/13 11:27:07;;;;;;;7.35;1.15;;;;;;;9.94;77.40;99549.19;5204751;28;20405;-73
2023/01/13 11:29:48;;;;;;;8.82;1.80;;;;;;;9.81;76.99;99537.69;5216482;28;20667;-74
2023/01/13 11:32:21;;;;;;;10.55;1.20;;;;;;;9.95;77.81;99551.75;5213547;28;20116;-73
2023/01/13 11:35:17;;;;;;;9.82;1.75;;;;;;;9.83;79.17;99547.13;5202345;28;20020;-73
2023/01/13 11:37:56;;;;;;;10.32;1.70;;;;;;;9.88;77.32;99546.91;5197049;28;20490;-73
2023/01/13 11:40:35;;;;;;;9.95;1.98;;;;;;;9.85;79.08;99547.06;5222702;28;20048;-75
2023/01/13 11:43:31;;;;;;;10.70;1.77;;;;;;;9.93;77.65;99537.06;5208007;28;20032;-73
2023/01/13 11:46:01;;;;;;;9.15;1.60;;;;;;;10.01;78.62;99530.59;5202117;28;20095;-75
2023/01/13 11:48:36;;;;;;;8.15;1.48;;;;;;;10.05;76.31;99533.91;5211103;28;20482;-73
2023/01/13 11:51:35;;;;;;;10.73;1.65;;;;;;;10.09;76.14;99532.81;5205859;28;20030;-74
2023/01/13 11:54:08;;;;;;;11.32;2.08;;;;;;;9.98;76.09;99535.09;5178180;28;20087;-76
2023/01/13 11:57:12;;;;;;;10.93;2.17;;;;;;;9.99;76.12;99528.97;5199449;28;20107;-74
2023/01/13 12:00:10;;;;;;;9.88;1.58;;;;;;;9.89;76.90;99541.63;5198264;28;20025;-75
2023/01/13 12:02:52;;;;;;;8.40;2.45;;;;;;;9.97;77.39;99536.03;5185290;28;20389;-73
2023/01/13 12:05:34;;;;;;;8.55;1.83;;;;;;;10.10;77.66;99537.97;5205973;28;20033;-73
2023/01/13 12:08:37;;;;;;;9.70;1.75;;;;;;;10.23;75.90;99528.59;5207926;28;20025;-73
2023/01/13 12:11:23;;;;;;;9.15;1.73;;;;;;;10.29;76.18;99533.50;5203516;28;20034;-73
2023/01/13 12:14:03;;;;;;;11.20;1.90;;;;;;;10.14;76.87;99541.28;5213174;28;20033;-74
2023/01/13 12:16:40;;;;;;;7.72;1.40;;;;;;;10.10;77.05;99529.28;5214385;28;20029;-73
2023/01/13 12:19:13;;;;;;;13.45;2.10;;;;;;;9.93;77.78;99542.28;5205632;28;20104;-74
2023/01/13 12:22:01;;;;;;;8.23;1.58;;;;;;;9.96;77.75;99537.78;5205441;28;20360;-73
2023/01/13 12:24:50;;;;;;;6.95;1.83;;;;;;;10.01;78.64;99540.16;5218632;28;20420;-73
2023/01/13 12:27:45;;;;;;;9.77;1.65;;;;;;;9.92;78.56;99536.25;5197689;28;20622;-73
2023/01/13 12:30:31;;;;;;;7.65;1.45;;;;;;;10.01;78.08;99534.94;5202146;28;20051;-75
2023/01/13 12:33:27;;;;;;;8.63;1.90;;;;;;;9.88;78.14;99520.81;5184543;28;20025;-74
2023/01/13 12:36:05;;;;;;;11.77;1.50;;;;;;;9.83;78.91;99535.84;5176090;28;20037;-74
2023/01/13 12:38:44;;;;;;;15.07;1.88;;;;;;;9.83;78.90;99531.47;5205140;28;20483;-73
2023/01/13 12:41:32;;;;;;;11.55;1.67;;;;;;;9.75;78.40;99525.78;5192837;28;20025;-72
2023/01/13 12:44:19;;;;;;;12.07;1.88;;;;;;;9.93;78.66;99530.09;5204484;28;20025;-73
2023/01/13 12:46:57;;;;;;;7.07;1.60;;;;;;;10.10;78.34;99530.16;5198751;28;20036;-73
2023/01/13 12:49:32;;;;;;;6.53;1.48;;;;;;;10.19;76.63;99524.44;5220852;28;20556;-74
2023/01/13 12:52:06;;;;;;;7.97;1.52;;;;;;;10.20;77.31;99520.91;5220361;28;20037;-74
2023/01/13 12:54:39;;;;;;;5.93;1.50;;;;;;;10.27;76.24;99500.56;5194013;28;20384;-73
2023/01/13 12:57:32;;;;;;;11.98;1.95;;;;;;;10.24;76.20;99503.31;5188644;28;20025;-71